createdAt,value
2023-04-28T00:00:05.959Z,5.70
2023-04-28T00:02:36.111Z,6.37
2023-04-28T00:05:06.852Z,6.87
2023-04-28T00:07:39.851Z,6.40
2023-04-28T00:10:11.515Z,6.30
2023-04-28T00:12:41.442Z,6.30
2023-04-28T00:15:13.632Z,6.50
2023-04-28T00:17:43.678Z,6.53
2023-04-28T00:20:14.904Z,6.70
2023-04-28T00:22:47.617Z,7.17
2023-04-28T00:25:17.548Z,6.40
2023-04-28T00:27:47.534Z,7.37
2023-04-28T00:30:18.174Z,6.73
2023-04-28T00:32:48.582Z,6.73
2023-04-28T00:35:18.535Z,6.83
2023-04-28T00:37:51.117Z,7.03
2023-04-28T00:40:21.316Z,6.77
2023-04-28T00:42:51.285Z,7.57
2023-04-28T00:45:21.400Z,6.87
2023-04-28T00:47:51.333Z,7.20
2023-04-28T00:50:21.545Z,7.73
2023-04-28T00:52:54.845Z,7.63
2023-04-28T00:55:25.275Z,7.03
2023-04-28T00:57:55.540Z,7.17
2023-04-28T01:00:25.872Z,6.70
2023-04-28T01:02:58.438Z,7.50
2023-04-28T01:05:29.633Z,7.13
2023-04-28T01:08:02.136Z,7.87
2023-04-28T01:10:31.981Z,6.53
2023-04-28T01:13:01.837Z,7.73
2023-04-28T01:15:32.620Z,7.87
2023-04-28T01:18:02.905Z,7.13
2023-04-28T01:20:32.832Z,7.37
2023-04-28T01:23:05.692Z,7.60
2023-04-28T01:25:38.419Z,7.67
2023-04-28T01:28:08.509Z,7.80
2023-04-28T01:30:40.638Z,7.57
2023-04-28T01:33:10.882Z,8.17
2023-04-28T01:35:40.777Z,7.37
2023-04-28T01:38:10.685Z,7.10
2023-04-28T01:40:46.121Z,7.63
2023-04-28T01:43:16.113Z,7.60
2023-04-28T01:45:47.265Z,7.90
2023-04-28T01:48:17.065Z,7.83
2023-04-28T01:50:46.806Z,7.70
2023-04-28T01:53:24.221Z,8.43
2023-04-28T01:56:11.664Z,8.17
2023-04-28T01:58:41.527Z,8.07
2023-04-28T02:01:11.696Z,8.30
2023-04-28T02:03:41.706Z,8.50
2023-04-28T02:06:11.609Z,8.23
2023-04-28T02:08:41.495Z,8.40
2023-04-28T02:11:13.962Z,8.73
2023-04-28T02:13:43.787Z,8.57
2023-04-28T02:16:13.701Z,8.90
2023-04-28T02:18:43.693Z,8.30
2023-04-28T02:21:14.285Z,8.80
2023-04-28T02:23:44.103Z,9.00
2023-04-28T02:26:17.372Z,9.57
2023-04-28T02:28:47.199Z,8.90
2023-04-28T02:31:17.085Z,8.90
2023-04-28T02:33:46.936Z,8.67
2023-04-28T02:36:16.985Z,9.43
2023-04-28T02:38:46.896Z,8.67
2023-04-28T02:41:19.401Z,9.17
2023-04-28T02:43:49.249Z,9.73
2023-04-28T02:46:19.291Z,9.67
2023-04-28T02:48:49.241Z,9.30
2023-04-28T02:51:19.079Z,9.27
2023-04-28T02:53:48.964Z,9.80
2023-04-28T02:56:21.470Z,9.37
2023-04-28T02:58:51.586Z,9.50
2023-04-28T03:01:21.622Z,9.90
2023-04-28T03:03:51.678Z,9.93
2023-04-28T03:06:21.567Z,10.00
2023-04-28T03:08:51.398Z,10.33
2023-04-28T03:11:23.870Z,10.63
2023-04-28T03:13:53.668Z,10.13
2023-04-28T03:16:23.647Z,9.50
2023-04-28T03:18:53.506Z,10.20
2023-04-28T03:21:23.385Z,9.90
2023-04-28T03:23:53.618Z,10.67
2023-04-28T03:26:26.145Z,10.53
2023-04-28T03:28:57.167Z,10.03
2023-04-28T03:31:27.275Z,10.63
2023-04-28T03:33:57.133Z,10.20
2023-04-28T03:36:27.766Z,9.57
2023-04-28T03:38:57.809Z,10.23
2023-04-28T03:41:30.357Z,10.70
2023-04-28T03:44:00.459Z,9.30
2023-04-28T03:46:30.498Z,10.80
2023-04-28T03:49:00.352Z,9.43
2023-04-28T03:51:30.927Z,10.83
2023-04-28T03:54:00.979Z,9.77
2023-04-28T03:56:33.531Z,10.10
2023-04-28T03:59:03.333Z,9.10
2023-04-28T04:01:33.250Z,9.80
2023-04-28T04:04:03.412Z,9.87
2023-04-28T04:06:34.224Z,10.73
2023-04-28T04:09:04.099Z,9.37
2023-04-28T04:11:36.638Z,10.43
2023-04-28T04:14:06.577Z,9.77
2023-04-28T04:16:36.508Z,9.40
2023-04-28T04:19:06.364Z,9.63
2023-04-28T04:21:36.440Z,10.27
2023-04-28T04:24:07.150Z,9.60
2023-04-28T04:26:39.713Z,9.93
2023-04-28T04:29:09.553Z,9.50
2023-04-28T04:31:39.951Z,9.67
2023-04-28T04:34:09.963Z,9.73
2023-04-28T04:36:40.102Z,9.40
2023-04-28T04:39:09.922Z,10.67
2023-04-28T04:41:42.658Z,10.03
2023-04-28T04:44:14.170Z,9.40
2023-04-28T04:46:44.461Z,9.57
2023-04-28T04:49:14.352Z,9.47
2023-04-28T04:51:44.451Z,9.10
2023-04-28T04:54:14.559Z,9.50
2023-04-28T04:56:49.044Z,9.83
2023-04-28T04:59:22.315Z,9.10
2023-04-28T05:01:52.494Z,9.80
2023-04-28T05:04:22.899Z,9.80
2023-04-28T05:06:53.077Z,9.93
2023-04-28T05:09:23.412Z,10.50
2023-04-28T05:11:56.309Z,10.40
2023-04-28T05:14:26.250Z,9.87
2023-04-28T05:16:57.185Z,9.97
2023-04-28T05:19:27.735Z,9.00
2023-04-28T05:21:57.590Z,9.40
2023-04-28T05:24:27.556Z,8.97
2023-04-28T05:27:01.919Z,9.87
2023-04-28T05:29:31.840Z,8.80
2023-04-28T05:32:01.963Z,9.53
2023-04-28T05:34:33.934Z,9.07
2023-04-28T05:37:04.130Z,8.90
2023-04-28T05:39:34.051Z,8.33
2023-04-28T05:42:06.909Z,8.90
2023-04-28T05:44:36.914Z,8.97
2023-04-28T05:47:07.118Z,9.03
2023-04-28T05:49:37.032Z,9.37
2023-04-28T05:52:07.613Z,8.60
2023-04-28T05:54:37.833Z,9.60
2023-04-28T05:57:10.777Z,8.30
2023-04-28T05:59:40.750Z,8.03
2023-04-28T06:02:10.874Z,8.50
2023-04-28T06:04:41.936Z,8.00
2023-04-28T06:07:14.869Z,8.27
2023-04-28T06:09:45.331Z,8.33
2023-04-28T06:12:18.360Z,7.57
2023-04-28T06:14:48.538Z,7.80
2023-04-28T06:17:18.435Z,8.63
2023-04-28T06:19:48.307Z,8.73
2023-04-28T06:22:18.445Z,8.27
2023-04-28T06:24:48.323Z,8.57
2023-04-28T06:27:20.969Z,8.63
2023-04-28T06:29:50.786Z,7.50
2023-04-28T06:32:20.836Z,8.13
2023-04-28T06:34:50.713Z,8.83
2023-04-28T06:37:20.760Z,7.87
2023-04-28T06:39:50.868Z,8.43
2023-04-28T06:42:23.495Z,9.07
2023-04-28T06:44:53.352Z,8.83
2023-04-28T06:47:23.546Z,8.50
2023-04-28T06:49:54.495Z,8.10
2023-04-28T06:52:33.434Z,8.13
2023-04-28T06:55:09.880Z,8.67
2023-04-28T06:57:42.844Z,8.97
2023-04-28T07:00:14.252Z,8.20
2023-04-28T07:02:44.364Z,7.93
2023-04-28T07:05:16.117Z,7.80
2023-04-28T07:07:48.308Z,8.00
2023-04-28T07:10:18.528Z,8.30
2023-04-28T07:12:53.056Z,8.00
2023-04-28T07:15:24.175Z,7.80
2023-04-28T07:17:54.123Z,7.57
2023-04-28T07:20:24.071Z,7.60
2023-04-28T07:22:53.972Z,7.10
2023-04-28T07:25:24.193Z,7.53
2023-04-28T07:27:58.389Z,7.33
2023-04-28T07:30:28.473Z,7.27
2023-04-28T07:32:58.764Z,6.63
2023-04-28T07:35:29.253Z,6.20
2023-04-28T07:37:59.872Z,6.17
2023-04-28T07:40:29.818Z,6.40
2023-04-28T07:43:02.711Z,6.43
2023-04-28T07:45:33.188Z,6.13
2023-04-28T07:48:03.213Z,6.37
2023-04-28T07:50:33.398Z,5.60
2023-04-28T07:53:03.298Z,5.80
2023-04-28T07:55:33.214Z,5.80
2023-04-28T07:58:05.958Z,5.77
2023-04-28T08:00:35.925Z,5.77
2023-04-28T08:03:06.284Z,5.87
2023-04-28T08:05:36.468Z,5.90
2023-04-28T08:08:06.522Z,5.30
2023-04-28T08:10:36.455Z,5.47
2023-04-28T08:13:09.002Z,6.00
2023-04-28T08:15:38.986Z,5.60
2023-04-28T08:18:09.085Z,5.87
2023-04-28T08:20:39.081Z,6.00
2023-04-28T08:23:08.915Z,5.30
2023-04-28T08:25:38.807Z,5.50
2023-04-28T08:28:11.387Z,5.50
2023-04-28T08:30:41.486Z,5.30
2023-04-28T08:33:11.443Z,5.40
2023-04-28T08:35:42.539Z,5.40
2023-04-28T08:38:14.265Z,5.50
2023-04-28T08:40:44.899Z,5.27
2023-04-28T08:43:17.437Z,4.93
2023-04-28T08:45:47.722Z,5.20
2023-04-28T08:48:25.349Z,5.50
2023-04-28T08:50:56.074Z,5.53
2023-04-28T08:53:28.526Z,6.30
2023-04-28T08:55:59.866Z,5.87
2023-04-28T08:58:32.607Z,5.70
2023-04-28T09:01:03.517Z,5.63
2023-04-28T09:03:34.274Z,4.50
2023-04-28T09:06:05.333Z,5.50
2023-04-28T09:08:35.291Z,5.63
2023-04-28T09:11:13.861Z,5.30
2023-04-28T09:13:46.418Z,5.40
2023-04-28T09:16:16.431Z,5.80
2023-04-28T09:18:59.928Z,6.17
2023-04-28T09:21:29.793Z,6.03
2023-04-28T09:23:59.897Z,6.13
2023-04-28T09:26:29.750Z,6.10
2023-04-28T09:29:17.587Z,7.03
2023-04-28T09:31:47.844Z,6.50
2023-04-28T09:34:18.513Z,5.70
2023-04-28T09:36:49.083Z,6.60
2023-04-28T09:39:31.236Z,6.53
2023-04-28T09:42:03.669Z,6.57
2023-04-28T09:44:36.519Z,6.53
2023-04-28T09:47:25.261Z,6.73
2023-04-28T09:50:00.079Z,6.83
2023-04-28T09:52:30.531Z,6.50
2023-04-28T09:55:00.969Z,7.33
2023-04-28T09:57:34.813Z,7.60
2023-04-28T10:00:09.549Z,7.37
2023-04-28T10:02:43.706Z,7.27
2023-04-28T10:05:16.597Z,8.43
2023-04-28T10:07:47.529Z,7.77
2023-04-28T10:10:19.404Z,8.20
2023-04-28T10:12:49.904Z,8.23
2023-04-28T10:15:23.339Z,8.17
2023-04-28T10:17:54.112Z,8.13
2023-04-28T10:20:26.477Z,8.47
2023-04-28T10:23:07.869Z,6.93
2023-04-28T10:25:39.776Z,8.97
2023-04-28T10:28:11.566Z,9.27
2023-04-28T10:30:44.272Z,8.47
2023-04-28T10:33:32.589Z,9.63
2023-04-28T10:36:03.921Z,9.37
2023-04-28T10:38:34.089Z,9.10
2023-04-28T10:41:04.808Z,8.63
2023-04-28T10:43:42.677Z,9.30
2023-04-28T10:46:15.703Z,9.13
2023-04-28T10:48:59.169Z,8.47
2023-04-28T10:51:33.362Z,9.43
2023-04-28T10:54:28.481Z,10.57
2023-04-28T10:57:23.323Z,9.23
2023-04-28T10:59:54.617Z,9.73
2023-04-28T11:02:48.245Z,11.27
2023-04-28T11:05:20.121Z,10.53
2023-04-28T11:08:33.486Z,14.17
2023-04-28T11:11:19.632Z,13.20
2023-04-28T11:13:50.369Z,13.57
2023-04-28T11:16:25.919Z,12.73
2023-04-28T11:19:05.580Z,12.37
2023-04-28T11:21:36.640Z,11.47
2023-04-28T11:24:13.152Z,11.77
2023-04-28T11:26:44.005Z,13.20
2023-04-28T11:29:15.313Z,13.43
2023-04-28T11:31:52.964Z,13.53
2023-04-28T11:34:26.930Z,13.47
2023-04-28T11:36:59.198Z,13.30
2023-04-28T11:39:31.786Z,13.37
2023-04-28T11:42:03.127Z,12.83
2023-04-28T11:44:34.668Z,11.97
2023-04-28T11:47:06.293Z,12.93
2023-04-28T11:49:46.713Z,12.13
2023-04-28T11:52:16.952Z,12.27
2023-04-28T11:54:46.922Z,12.97
2023-04-28T11:57:27.029Z,13.70
2023-04-28T11:59:57.197Z,13.53
2023-04-28T12:02:31.360Z,13.87
2023-04-28T12:05:09.585Z,13.13
2023-04-28T12:07:45.933Z,14.03
2023-04-28T12:10:19.184Z,14.33
2023-04-28T12:12:52.682Z,13.27
2023-04-28T12:15:25.029Z,13.43
2023-04-28T12:17:55.431Z,14.83
2023-04-28T12:20:42.927Z,13.27
2023-04-28T12:23:13.177Z,12.80
2023-04-28T12:25:49.699Z,12.60
2023-04-28T12:28:19.718Z,12.23
2023-04-28T12:30:50.014Z,11.90
2023-04-28T12:33:27.716Z,11.33
2023-04-28T12:36:01.730Z,11.57
2023-04-28T12:38:32.653Z,10.30
2023-04-28T12:41:02.946Z,10.57
2023-04-28T12:43:33.550Z,9.60
2023-04-28T12:46:04.345Z,9.43
2023-04-28T12:48:35.105Z,9.50
2023-04-28T12:51:09.413Z,9.07
2023-04-28T12:53:39.528Z,7.97
2023-04-28T12:56:10.590Z,8.95
2023-04-28T12:58:41.482Z,7.80
2023-04-28T13:01:13.787Z,25.45
2023-04-28T13:03:44.625Z,9.48
2023-04-28T13:06:20.295Z,8.65
2023-04-28T13:08:50.174Z,8.55
2023-04-28T13:11:22.905Z,8.50
2023-04-28T13:13:53.611Z,8.73
2023-04-28T13:16:25.350Z,8.95
2023-04-28T13:18:55.227Z,8.23
2023-04-28T13:21:29.067Z,8.65
2023-04-28T13:23:59.680Z,8.00
2023-04-28T13:26:30.729Z,8.80
2023-04-28T13:29:00.890Z,8.45
2023-04-28T13:31:30.991Z,8.20
2023-04-28T13:34:02.780Z,7.80
2023-04-28T13:36:36.289Z,8.13
2023-04-28T13:39:06.756Z,7.15
2023-04-28T13:41:37.203Z,7.93
2023-04-28T13:44:07.216Z,7.20
2023-04-28T13:46:37.226Z,7.53
2023-04-28T13:49:07.517Z,7.32
2023-04-28T13:51:40.147Z,7.50
2023-04-28T13:54:11.774Z,6.85
2023-04-28T13:56:41.866Z,7.22
2023-04-28T13:59:11.782Z,6.95
2023-04-28T14:01:41.678Z,6.80
2023-04-28T14:04:11.886Z,6.63
2023-04-28T14:06:46.970Z,6.70
2023-04-28T14:09:17.261Z,7.00
2023-04-28T14:11:49.065Z,6.85
2023-04-28T14:14:19.238Z,7.38
2023-04-28T14:16:50.542Z,7.13
2023-04-28T14:19:21.155Z,6.78
2023-04-28T14:21:53.890Z,7.55
2023-04-28T14:24:24.182Z,7.45
2023-04-28T14:26:55.261Z,6.82
2023-04-28T14:29:25.185Z,6.47
2023-04-28T14:31:55.059Z,5.50
2023-04-28T14:34:25.065Z,4.93
2023-04-28T14:36:57.711Z,5.68
2023-04-28T14:39:27.621Z,6.18
2023-04-28T14:41:57.614Z,6.25
2023-04-28T14:44:27.685Z,6.00
2023-04-28T14:46:57.680Z,6.60
2023-04-28T14:49:27.861Z,5.63
2023-04-28T14:52:01.155Z,5.80
2023-04-28T14:54:31.331Z,5.60
2023-04-28T14:57:01.891Z,5.45
2023-04-28T14:59:31.846Z,4.97
2023-04-28T15:02:02.157Z,4.38
2023-04-28T15:04:32.230Z,3.70
2023-04-28T15:07:04.817Z,3.83
2023-04-28T15:09:34.699Z,4.55
2023-04-28T15:12:04.645Z,5.07
2023-04-28T15:14:34.704Z,4.65
2023-04-28T15:17:04.588Z,4.90
2023-04-28T15:19:34.957Z,5.13
2023-04-28T15:22:07.570Z,6.57
2023-04-28T15:24:37.737Z,6.05
2023-04-28T15:27:07.725Z,6.50
2023-04-28T15:29:38.405Z,5.60
2023-04-28T15:32:08.913Z,6.22
2023-04-28T15:34:39.174Z,5.68
2023-04-28T15:37:43.807Z,5.80
2023-04-28T15:40:15.918Z,5.20
2023-04-28T15:42:49.584Z,6.15
2023-04-28T15:45:20.197Z,5.88
2023-04-28T15:47:51.301Z,5.35
2023-04-28T15:50:22.128Z,5.32
2023-04-28T15:52:54.873Z,5.65
2023-04-28T15:55:25.627Z,5.00
2023-04-28T15:57:55.564Z,3.80
2023-04-28T16:00:25.853Z,4.53
2023-04-28T16:02:55.804Z,4.30
2023-04-28T16:05:26.495Z,3.95
2023-04-28T16:07:58.997Z,5.50
2023-04-28T16:10:28.996Z,3.75
2023-04-28T16:12:59.052Z,4.18
2023-04-28T16:15:28.850Z,3.78
2023-04-28T16:17:58.883Z,4.13
2023-04-28T16:20:28.721Z,3.97
2023-04-28T16:23:01.266Z,4.40
2023-04-28T16:25:31.158Z,4.10
2023-04-28T16:28:01.156Z,4.85
2023-04-28T16:30:31.120Z,4.15
2023-04-28T16:33:01.124Z,3.75
2023-04-28T16:35:31.034Z,4.05
2023-04-28T16:38:03.679Z,4.60
2023-04-28T16:40:33.730Z,4.43
2023-04-28T16:43:03.702Z,4.75
2023-04-28T16:45:33.841Z,5.05
2023-04-28T16:48:03.866Z,4.25
2023-04-28T16:50:36.580Z,5.32
2023-04-28T16:53:10.402Z,4.88
2023-04-28T16:55:40.755Z,5.22
2023-04-28T16:58:10.685Z,5.13
2023-04-28T17:00:40.614Z,5.05
2023-04-28T17:03:10.567Z,5.50
2023-04-28T17:05:40.521Z,5.55
2023-04-28T17:08:13.351Z,5.97
2023-04-28T17:10:43.173Z,6.20
2023-04-28T17:13:12.941Z,5.75
2023-04-28T17:15:43.105Z,6.30
2023-04-28T17:18:12.915Z,6.00
2023-04-28T17:20:43.236Z,6.30
2023-04-28T17:23:15.992Z,6.13
2023-04-28T17:25:45.894Z,5.67
2023-04-28T17:28:15.905Z,6.18
2023-04-28T17:30:47.603Z,5.70
2023-04-28T17:33:18.177Z,6.60
2023-04-28T17:35:48.262Z,6.47
2023-04-28T17:38:20.661Z,7.32
2023-04-28T17:40:51.320Z,6.82
2023-04-28T17:43:21.998Z,7.18
2023-04-28T17:45:54.403Z,7.18
2023-04-28T17:48:24.506Z,7.13
2023-04-28T17:50:54.676Z,6.90
2023-04-28T17:53:27.616Z,6.88
2023-04-28T17:55:57.636Z,6.70
2023-04-28T17:58:27.578Z,7.75
2023-04-28T18:01:03.277Z,8.32
2023-04-28T18:03:33.697Z,7.68
2023-04-28T18:06:07.781Z,8.50
2023-04-28T18:08:40.375Z,8.33
2023-04-28T18:11:10.232Z,7.27
2023-04-28T18:13:40.145Z,7.70
2023-04-28T18:16:14.045Z,7.53
2023-04-28T18:18:44.711Z,7.63
2023-04-28T18:21:15.145Z,7.50
2023-04-28T18:23:48.170Z,7.03
2023-04-28T18:26:18.391Z,6.83
2023-04-28T18:28:49.741Z,7.03
2023-04-28T18:31:19.743Z,7.23
2023-04-28T18:33:50.056Z,7.30
2023-04-28T18:36:19.922Z,5.67
2023-04-28T18:38:52.466Z,6.00
2023-04-28T18:41:22.225Z,5.87
2023-04-28T18:43:52.138Z,5.27
2023-04-28T18:46:22.467Z,5.90
2023-04-28T18:48:52.498Z,5.70
2023-04-28T18:51:22.852Z,5.80
2023-04-28T18:53:55.306Z,5.00
2023-04-28T18:56:26.663Z,5.63
2023-04-28T18:58:57.014Z,5.70
2023-04-28T19:01:27.760Z,5.30
2023-04-28T19:03:57.926Z,5.70
2023-04-28T19:06:27.866Z,5.87
2023-04-28T19:09:01.792Z,6.50
2023-04-28T19:11:32.441Z,5.73
2023-04-28T19:14:02.433Z,6.37
2023-04-28T19:16:32.323Z,6.57
2023-04-28T19:19:02.683Z,6.70
2023-04-28T19:21:34.521Z,6.70
2023-04-28T19:24:07.555Z,6.13
2023-04-28T19:26:37.855Z,6.87
2023-04-28T19:29:08.178Z,7.00
2023-04-28T19:31:38.080Z,7.37
2023-04-28T19:34:07.981Z,7.80
2023-04-28T19:36:39.335Z,7.87
2023-04-28T19:39:11.911Z,6.73
2023-04-28T19:41:41.790Z,7.17
2023-04-28T19:44:11.774Z,7.50
2023-04-28T19:46:42.934Z,7.73
2023-04-28T19:49:14.535Z,7.50
2023-04-28T19:51:44.588Z,8.00
2023-04-28T19:54:17.114Z,7.77
2023-04-28T19:56:47.219Z,7.40
2023-04-28T19:59:17.872Z,7.27
2023-04-28T20:01:47.888Z,7.13
2023-04-28T20:04:18.934Z,7.30
2023-04-28T20:06:49.113Z,7.33
2023-04-28T20:09:21.856Z,8.10
2023-04-28T20:11:51.753Z,7.73
2023-04-28T20:14:21.862Z,8.87
2023-04-28T20:16:51.797Z,9.20
2023-04-28T20:19:21.726Z,8.67
2023-04-28T20:21:51.924Z,9.50
2023-04-28T20:24:24.632Z,9.17
2023-04-28T20:26:54.958Z,8.63
2023-04-28T20:29:25.393Z,9.40
2023-04-28T20:31:55.340Z,9.07
2023-04-28T20:34:25.377Z,10.20
2023-04-28T20:36:55.955Z,9.50
2023-04-28T20:39:28.627Z,10.77
2023-04-28T20:41:59.602Z,10.03
2023-04-28T20:44:32.801Z,9.80
2023-04-28T20:47:02.767Z,9.63
2023-04-28T20:49:33.132Z,9.57
2023-04-28T20:52:06.698Z,9.37
2023-04-28T20:54:40.095Z,9.50
2023-04-28T20:57:09.989Z,8.97
2023-04-28T20:59:39.989Z,9.70
2023-04-28T21:02:11.597Z,9.67
2023-04-28T21:04:41.684Z,8.90
2023-04-28T21:07:11.533Z,9.43
2023-04-28T21:09:44.209Z,9.63
2023-04-28T21:12:15.108Z,9.73
2023-04-28T21:14:45.375Z,9.37
2023-04-28T21:17:15.519Z,9.50
2023-04-28T21:19:45.444Z,9.03
2023-04-28T21:22:15.298Z,9.57
2023-04-28T21:24:47.977Z,10.77
2023-04-28T21:27:18.098Z,10.27
2023-04-28T21:29:47.996Z,8.80
2023-04-28T21:32:18.070Z,8.70
2023-04-28T21:34:50.429Z,8.37
2023-04-28T21:37:20.390Z,8.03
2023-04-28T21:39:53.139Z,8.43
2023-04-28T21:42:23.138Z,7.33
2023-04-28T21:44:53.123Z,8.43
2023-04-28T21:47:22.954Z,8.80
2023-04-28T21:49:52.914Z,8.43
2023-04-28T21:52:22.745Z,8.40
2023-04-28T21:54:55.500Z,8.70
2023-04-28T21:57:25.254Z,9.97
2023-04-28T21:59:55.233Z,8.73
2023-04-28T22:02:25.417Z,9.10
2023-04-28T22:04:55.569Z,9.87
2023-04-28T22:07:25.948Z,9.67
2023-04-28T22:09:59.924Z,10.00
2023-04-28T22:12:29.739Z,9.80
2023-04-28T22:15:00.343Z,10.40
2023-04-28T22:17:30.390Z,10.13
2023-04-28T22:20:00.281Z,10.90
2023-04-28T22:22:30.121Z,11.27
2023-04-28T22:25:02.818Z,10.67
2023-04-28T22:27:33.559Z,10.87
2023-04-28T22:30:04.192Z,11.47
2023-04-28T22:32:34.542Z,11.50
2023-04-28T22:35:04.925Z,11.17
2023-04-28T22:37:34.704Z,10.80
2023-04-28T22:40:08.694Z,11.20
2023-04-28T22:42:39.703Z,11.80
2023-04-28T22:45:10.929Z,11.97
2023-04-28T22:47:43.134Z,13.13
2023-04-28T22:50:14.535Z,13.40
2023-04-28T22:52:44.466Z,12.83
2023-04-28T22:55:17.077Z,13.50
2023-04-28T22:57:46.855Z,14.10
2023-04-28T23:00:18.662Z,14.27
2023-04-28T23:02:48.588Z,13.97
2023-04-28T23:05:18.685Z,14.90
2023-04-28T23:07:49.427Z,14.30
2023-04-28T23:10:22.197Z,14.30
2023-04-28T23:12:52.064Z,14.60
2023-04-28T23:15:22.125Z,15.30
2023-04-28T23:17:52.081Z,16.03
2023-04-28T23:20:22.134Z,15.90
2023-04-28T23:22:52.747Z,14.33
2023-04-28T23:25:25.653Z,16.63
2023-04-28T23:27:56.366Z,18.60
2023-04-28T23:30:26.410Z,19.03
2023-04-28T23:32:56.689Z,19.13
2023-04-28T23:35:26.725Z,18.23
2023-04-28T23:37:56.753Z,15.63
2023-04-28T23:40:29.733Z,17.27
2023-04-28T23:43:00.112Z,19.33
2023-04-28T23:45:30.072Z,16.97
2023-04-28T23:47:59.990Z,15.23
2023-04-28T23:50:30.798Z,18.17
2023-04-28T23:53:00.682Z,18.03
2023-04-28T23:55:33.122Z,18.77
2023-04-28T23:58:04.905Z,19.60
